aviador You're here:

PAIG Decoded Metar

IGIUGIG in AK, USA
Report Time2018-06-22 02:56:00
UTC Time2018-06-22 03:08:43
Flight Rules vfr VFR
Wind050° at 07 kt
W.Decomp.*RWY 05: 6.6 kt HW 2.3 kt LCW
W.Rank050° ranks 3
Current wind is below 050° avg. (9.4)
Visibility9999 m
Phenomena:N/A
Clouds:Broken 065 Hf
Expected CloudBase > 1,600 ft AGL from Temp-Dew spread
Ceiling6,500 ft
Temp13°C (ISA -2)
Dew Point09°C (77% RH)
AAT10.3°C
QNH1009 hPa
Density Alt167 ft
Elevation92 ft
Report Wrong Elevation
Raw Report
PAIG 220256Z AUTO 05007KT 10SM BKN065 13/09 A2981 RMK AO2 SLP106
T01330094 51007 $=

Extra information for PAIG:More info

Metar Taf Metar & Taf Last 4 Metars F.Rules Stats Wind Profile Meteogram Temp Stats Airport Information Weather charts Add Link Nearby VenuesMetar ALERT Operation Metar Decoded Social comments

AIRNAV info for PAIG